sensor_id;sensor_type;location;lat;lon;timestamp;P1;durP1;ratioP1;P2;durP2;ratioP2
19951;SDS011;10137;49.406;19.484;2023-03-24T00:01:29;5.50;;;3.07;;
19951;SDS011;10137;49.406;19.484;2023-03-24T00:03:57;4.63;;;3.13;;
19951;SDS011;10137;49.406;19.484;2023-03-24T00:06:28;4.83;;;2.87;;
19951;SDS011;10137;49.406;19.484;2023-03-24T00:09:00;5.83;;;3.10;;
19951;SDS011;10137;49.406;19.484;2023-03-24T00:11:31;5.73;;;3.37;;
19951;SDS011;10137;49.406;19.484;2023-03-24T00:14:09;4.63;;;3.07;;
19951;SDS011;10137;49.406;19.484;2023-03-24T00:16:38;5.37;;;3.40;;
19951;SDS011;10137;49.406;19.484;2023-03-24T00:19:08;3.63;;;3.27;;
19951;SDS011;10137;49.406;19.484;2023-03-24T00:21:36;3.33;;;2.77;;
19951;SDS011;10137;49.406;19.484;2023-03-24T00:24:05;5.13;;;2.93;;
19951;SDS011;10137;49.406;19.484;2023-03-24T00:26:33;4.60;;;2.97;;
19951;SDS011;10137;49.406;19.484;2023-03-24T00:29:11;5.70;;;3.40;;
19951;SDS011;10137;49.406;19.484;2023-03-24T00:31:42;5.57;;;2.80;;
19951;SDS011;10137;49.406;19.484;2023-03-24T00:34:11;5.20;;;3.00;;
19951;SDS011;10137;49.406;19.484;2023-03-24T00:36:39;4.87;;;3.20;;
19951;SDS011;10137;49.406;19.484;2023-03-24T00:39:07;6.30;;;3.87;;
19951;SDS011;10137;49.406;19.484;2023-03-24T00:41:35;5.20;;;3.27;;
19951;SDS011;10137;49.406;19.484;2023-03-24T00:44:03;4.77;;;3.40;;
19951;SDS011;10137;49.406;19.484;2023-03-24T00:46:34;4.73;;;3.17;;
19951;SDS011;10137;49.406;19.484;2023-03-24T00:49:04;4.90;;;3.57;;
19951;SDS011;10137;49.406;19.484;2023-03-24T00:51:38;4.63;;;3.17;;
19951;SDS011;10137;49.406;19.484;2023-03-24T00:54:08;5.97;;;3.13;;
19951;SDS011;10137;49.406;19.484;2023-03-24T00:56:41;5.10;;;3.20;;
19951;SDS011;10137;49.406;19.484;2023-03-24T00:59:15;4.57;;;3.03;;
19951;SDS011;10137;49.406;19.484;2023-03-24T01:01:44;6.90;;;4.30;;
19951;SDS011;10137;49.406;19.484;2023-03-24T01:04:12;4.60;;;3.17;;
19951;SDS011;10137;49.406;19.484;2023-03-24T01:06:40;7.03;;;3.07;;
19951;SDS011;10137;49.406;19.484;2023-03-24T01:09:12;7.73;;;3.60;;
19951;SDS011;10137;49.406;19.484;2023-03-24T01:11:40;6.67;;;3.23;;
19951;SDS011;10137;49.406;19.484;2023-03-24T01:14:10;5.47;;;3.30;;
19951;SDS011;10137;49.406;19.484;2023-03-24T01:16:39;10.80;;;6.30;;
19951;SDS011;10137;49.406;19.484;2023-03-24T01:19:09;10.17;;;6.77;;
19951;SDS011;10137;49.406;19.484;2023-03-24T01:21:40;14.77;;;10.10;;
19951;SDS011;10137;49.406;19.484;2023-03-24T01:24:09;15.67;;;9.43;;
19951;SDS011;10137;49.406;19.484;2023-03-24T01:26:39;13.07;;;7.33;;
19951;SDS011;10137;49.406;19.484;2023-03-24T01:29:07;7.60;;;5.80;;
19951;SDS011;10137;49.406;19.484;2023-03-24T01:31:34;8.20;;;5.97;;
19951;SDS011;10137;49.406;19.484;2023-03-24T01:34:03;8.43;;;6.00;;
19951;SDS011;10137;49.406;19.484;2023-03-24T01:36:33;8.77;;;6.00;;
19951;SDS011;10137;49.406;19.484;2023-03-24T01:39:01;7.97;;;5.70;;
19951;SDS011;10137;49.406;19.484;2023-03-24T01:41:31;13.70;;;7.87;;
19951;SDS011;10137;49.406;19.484;2023-03-24T01:46:57;24.50;;;12.87;;
19951;SDS011;10137;49.406;19.484;2023-03-24T01:49:27;13.47;;;8.23;;
19951;SDS011;10137;49.406;19.484;2023-03-24T01:52:07;14.53;;;7.93;;
19951;SDS011;10137;49.406;19.484;2023-03-24T01:54:40;13.50;;;8.27;;
19951;SDS011;10137;49.406;19.484;2023-03-24T01:57:11;12.27;;;6.67;;
19951;SDS011;10137;49.406;19.484;2023-03-24T01:59:47;9.70;;;6.30;;
19951;SDS011;10137;49.406;19.484;2023-03-24T02:02:17;10.70;;;6.90;;
19951;SDS011;10137;49.406;19.484;2023-03-24T02:04:48;13.63;;;6.60;;
19951;SDS011;10137;49.406;19.484;2023-03-24T02:07:22;10.77;;;5.90;;
19951;SDS011;10137;49.406;19.484;2023-03-24T02:09:58;13.97;;;6.60;;
19951;SDS011;10137;49.406;19.484;2023-03-24T02:12:27;9.57;;;5.90;;
19951;SDS011;10137;49.406;19.484;2023-03-24T02:14:57;9.40;;;5.83;;
19951;SDS011;10137;49.406;19.484;2023-03-24T02:17:30;11.77;;;6.80;;
19951;SDS011;10137;49.406;19.484;2023-03-24T02:29:43;8.40;;;5.37;;
19951;SDS011;10137;49.406;19.484;2023-03-24T02:32:52;9.47;;;5.43;;
19951;SDS011;10137;49.406;19.484;2023-03-24T02:36:17;6.87;;;5.17;;
19951;SDS011;10137;49.406;19.484;2023-03-24T02:42:24;11.13;;;5.77;;
19951;SDS011;10137;49.406;19.484;2023-03-24T02:45:06;8.70;;;5.80;;
19951;SDS011;10137;49.406;19.484;2023-03-24T02:47:49;14.53;;;9.80;;
19951;SDS011;10137;49.406;19.484;2023-03-24T02:50:35;25.40;;;22.23;;
19951;SDS011;10137;49.406;19.484;2023-03-24T02:53:10;14.90;;;10.77;;
19951;SDS011;10137;49.406;19.484;2023-03-24T02:55:48;12.90;;;5.10;;
19951;SDS011;10137;49.406;19.484;2023-03-24T02:58:22;10.90;;;5.93;;
19951;SDS011;10137;49.406;19.484;2023-03-24T03:01:01;16.40;;;6.50;;
19951;SDS011;10137;49.406;19.484;2023-03-24T03:03:33;7.17;;;5.17;;
19951;SDS011;10137;49.406;19.484;2023-03-24T03:06:08;9.77;;;5.67;;
19951;SDS011;10137;49.406;19.484;2023-03-24T03:08:42;11.60;;;5.40;;
19951;SDS011;10137;49.406;19.484;2023-03-24T03:11:15;11.17;;;5.60;;
19951;SDS011;10137;49.406;19.484;2023-03-24T03:13:47;8.17;;;5.27;;
19951;SDS011;10137;49.406;19.484;2023-03-24T03:16:18;9.43;;;5.40;;
19951;SDS011;10137;49.406;19.484;2023-03-24T03:18:52;7.50;;;4.73;;
19951;SDS011;10137;49.406;19.484;2023-03-24T03:21:27;8.63;;;4.53;;
19951;SDS011;10137;49.406;19.484;2023-03-24T03:24:02;9.17;;;4.77;;
19951;SDS011;10137;49.406;19.484;2023-03-24T03:26:41;7.40;;;4.60;;
19951;SDS011;10137;49.406;19.484;2023-03-24T03:29:13;8.83;;;4.70;;
19951;SDS011;10137;49.406;19.484;2023-03-24T03:31:48;7.43;;;4.97;;
19951;SDS011;10137;49.406;19.484;2023-03-24T03:34:28;5.60;;;4.50;;
19951;SDS011;10137;49.406;19.484;2023-03-24T03:37:07;6.40;;;4.70;;
19951;SDS011;10137;49.406;19.484;2023-03-24T03:39:40;8.10;;;4.90;;
19951;SDS011;10137;49.406;19.484;2023-03-24T03:42:16;9.03;;;5.30;;
19951;SDS011;10137;49.406;19.484;2023-03-24T03:44:45;8.13;;;5.47;;
19951;SDS011;10137;49.406;19.484;2023-03-24T03:47:13;8.87;;;4.97;;
19951;SDS011;10137;49.406;19.484;2023-03-24T03:49:44;14.43;;;10.60;;
19951;SDS011;10137;49.406;19.484;2023-03-24T03:52:12;10.37;;;7.63;;
19951;SDS011;10137;49.406;19.484;2023-03-24T03:54:43;19.93;;;14.63;;
19951;SDS011;10137;49.406;19.484;2023-03-24T03:57:12;11.33;;;7.97;;
19951;SDS011;10137;49.406;19.484;2023-03-24T03:59:43;37.47;;;29.37;;
19951;SDS011;10137;49.406;19.484;2023-03-24T04:02:22;25.80;;;21.83;;
19951;SDS011;10137;49.406;19.484;2023-03-24T04:05:09;42.03;;;35.53;;
19951;SDS011;10137;49.406;19.484;2023-03-24T04:07:46;111.13;;;90.57;;
19951;SDS011;10137;49.406;19.484;2023-03-24T04:10:38;23.20;;;18.27;;
19951;SDS011;10137;49.406;19.484;2023-03-24T04:13:25;16.70;;;11.10;;
19951;SDS011;10137;49.406;19.484;2023-03-24T04:16:08;15.80;;;9.83;;
19951;SDS011;10137;49.406;19.484;2023-03-24T04:18:51;15.17;;;9.43;;
19951;SDS011;10137;49.406;19.484;2023-03-24T04:21:38;16.37;;;9.27;;
19951;SDS011;10137;49.406;19.484;2023-03-24T04:24:22;20.67;;;12.63;;
19951;SDS011;10137;49.406;19.484;2023-03-24T04:27:06;16.97;;;11.70;;
19951;SDS011;10137;49.406;19.484;2023-03-24T04:29:43;18.03;;;11.50;;
19951;SDS011;10137;49.406;19.484;2023-03-24T04:32:24;14.50;;;10.53;;
19951;SDS011;10137;49.406;19.484;2023-03-24T04:35:01;13.67;;;10.10;;
19951;SDS011;10137;49.406;19.484;2023-03-24T04:37:33;15.37;;;9.70;;
19951;SDS011;10137;49.406;19.484;2023-03-24T04:40:04;24.03;;;13.03;;
19951;SDS011;10137;49.406;19.484;2023-03-24T04:42:35;20.03;;;11.73;;
19951;SDS011;10137;49.406;19.484;2023-03-24T04:45:07;19.90;;;11.97;;
19951;SDS011;10137;49.406;19.484;2023-03-24T04:47:39;22.47;;;13.23;;
19951;SDS011;10137;49.406;19.484;2023-03-24T04:50:10;37.97;;;19.23;;
19951;SDS011;10137;49.406;19.484;2023-03-24T04:52:41;47.80;;;21.90;;
19951;SDS011;10137;49.406;19.484;2023-03-24T04:55:23;38.87;;;18.70;;
19951;SDS011;10137;49.406;19.484;2023-03-24T04:58:19;30.97;;;16.97;;
19951;SDS011;10137;49.406;19.484;2023-03-24T05:00:49;29.97;;;16.67;;
19951;SDS011;10137;49.406;19.484;2023-03-24T05:03:22;28.40;;;16.37;;
19951;SDS011;10137;49.406;19.484;2023-03-24T05:05:51;22.03;;;13.93;;
19951;SDS011;10137;49.406;19.484;2023-03-24T05:08:19;16.63;;;10.07;;
19951;SDS011;10137;49.406;19.484;2023-03-24T05:10:50;19.60;;;9.17;;
19951;SDS011;10137;49.406;19.484;2023-03-24T05:13:18;14.03;;;8.27;;
19951;SDS011;10137;49.406;19.484;2023-03-24T05:15:51;15.07;;;7.23;;
19951;SDS011;10137;49.406;19.484;2023-03-24T05:18:23;9.33;;;7.33;;
19951;SDS011;10137;49.406;19.484;2023-03-24T05:20:51;13.37;;;7.70;;
19951;SDS011;10137;49.406;19.484;2023-03-24T05:23:19;17.17;;;6.47;;
19951;SDS011;10137;49.406;19.484;2023-03-24T05:25:48;12.23;;;6.20;;
19951;SDS011;10137;49.406;19.484;2023-03-24T05:28:16;12.13;;;5.83;;
19951;SDS011;10137;49.406;19.484;2023-03-24T05:30:43;13.80;;;6.93;;
19951;SDS011;10137;49.406;19.484;2023-03-24T05:33:11;8.43;;;5.97;;
19951;SDS011;10137;49.406;19.484;2023-03-24T05:35:41;9.07;;;6.20;;
19951;SDS011;10137;49.406;19.484;2023-03-24T05:38:10;6.70;;;5.03;;
19951;SDS011;10137;49.406;19.484;2023-03-24T05:40:38;9.10;;;5.40;;
19951;SDS011;10137;49.406;19.484;2023-03-24T05:43:06;15.87;;;5.70;;
19951;SDS011;10137;49.406;19.484;2023-03-24T05:45:40;10.67;;;5.27;;
19951;SDS011;10137;49.406;19.484;2023-03-24T05:48:10;11.40;;;5.93;;
19951;SDS011;10137;49.406;19.484;2023-03-24T05:50:38;10.87;;;5.53;;
19951;SDS011;10137;49.406;19.484;2023-03-24T05:53:13;8.53;;;5.53;;
19951;SDS011;10137;49.406;19.484;2023-03-24T05:55:43;12.50;;;5.87;;
19951;SDS011;10137;49.406;19.484;2023-03-24T05:58:12;17.90;;;6.20;;
19951;SDS011;10137;49.406;19.484;2023-03-24T06:00:41;10.80;;;6.03;;
19951;SDS011;10137;49.406;19.484;2023-03-24T06:03:08;19.47;;;6.60;;
19951;SDS011;10137;49.406;19.484;2023-03-24T06:05:39;12.43;;;6.27;;
19951;SDS011;10137;49.406;19.484;2023-03-24T06:08:10;10.07;;;5.40;;
19951;SDS011;10137;49.406;19.484;2023-03-24T06:10:38;10.90;;;5.80;;
19951;SDS011;10137;49.406;19.484;2023-03-24T06:13:07;13.77;;;6.17;;
19951;SDS011;10137;49.406;19.484;2023-03-24T06:15:36;9.17;;;5.73;;
19951;SDS011;10137;49.406;19.484;2023-03-24T06:18:07;8.83;;;5.87;;
19951;SDS011;10137;49.406;19.484;2023-03-24T06:20:39;10.73;;;6.30;;
19951;SDS011;10137;49.406;19.484;2023-03-24T06:23:15;9.60;;;6.73;;
19951;SDS011;10137;49.406;19.484;2023-03-24T06:25:44;12.57;;;7.47;;
19951;SDS011;10137;49.406;19.484;2023-03-24T06:28:12;12.20;;;6.60;;
19951;SDS011;10137;49.406;19.484;2023-03-24T06:30:41;13.80;;;8.00;;
19951;SDS011;10137;49.406;19.484;2023-03-24T06:33:11;16.87;;;8.97;;
19951;SDS011;10137;49.406;19.484;2023-03-24T06:35:42;14.70;;;8.37;;
19951;SDS011;10137;49.406;19.484;2023-03-24T06:38:10;19.10;;;11.50;;
19951;SDS011;10137;49.406;19.484;2023-03-24T06:40:40;26.17;;;15.80;;
19951;SDS011;10137;49.406;19.484;2023-03-24T06:43:08;26.17;;;16.57;;
19951;SDS011;10137;49.406;19.484;2023-03-24T06:45:36;28.07;;;17.40;;
19951;SDS011;10137;49.406;19.484;2023-03-24T06:48:07;28.27;;;18.27;;
19951;SDS011;10137;49.406;19.484;2023-03-24T06:50:35;18.47;;;10.93;;
19951;SDS011;10137;49.406;19.484;2023-03-24T06:53:05;15.50;;;10.27;;
19951;SDS011;10137;49.406;19.484;2023-03-24T06:55:35;13.13;;;7.90;;
19951;SDS011;10137;49.406;19.484;2023-03-24T06:58:03;12.27;;;9.47;;
19951;SDS011;10137;49.406;19.484;2023-03-24T07:00:32;10.33;;;7.80;;
19951;SDS011;10137;49.406;19.484;2023-03-24T07:03:00;15.07;;;8.63;;
19951;SDS011;10137;49.406;19.484;2023-03-24T07:05:28;13.53;;;7.73;;
19951;SDS011;10137;49.406;19.484;2023-03-24T07:07:56;10.77;;;7.27;;
19951;SDS011;10137;49.406;19.484;2023-03-24T07:10:26;15.57;;;10.87;;
19951;SDS011;10137;49.406;19.484;2023-03-24T07:12:55;14.00;;;9.30;;
19951;SDS011;10137;49.406;19.484;2023-03-24T07:15:25;17.40;;;11.13;;
19951;SDS011;10137;49.406;19.484;2023-03-24T07:17:53;12.57;;;7.13;;
19951;SDS011;10137;49.406;19.484;2023-03-24T07:20:20;12.17;;;8.03;;
19951;SDS011;10137;49.406;19.484;2023-03-24T07:22:49;15.20;;;9.77;;
19951;SDS011;10137;49.406;19.484;2023-03-24T07:25:16;22.67;;;14.83;;
19951;SDS011;10137;49.406;19.484;2023-03-24T07:27:46;18.63;;;12.53;;
19951;SDS011;10137;49.406;19.484;2023-03-24T07:30:15;19.53;;;12.57;;
19951;SDS011;10137;49.406;19.484;2023-03-24T07:32:42;22.17;;;14.80;;
19951;SDS011;10137;49.406;19.484;2023-03-24T07:35:09;20.60;;;12.17;;
19951;SDS011;10137;49.406;19.484;2023-03-24T07:37:37;21.47;;;12.07;;
19951;SDS011;10137;49.406;19.484;2023-03-24T07:40:05;20.93;;;12.77;;
19951;SDS011;10137;49.406;19.484;2023-03-24T07:42:38;23.43;;;14.87;;
19951;SDS011;10137;49.406;19.484;2023-03-24T07:45:08;17.60;;;9.40;;
19951;SDS011;10137;49.406;19.484;2023-03-24T07:47:37;23.03;;;14.73;;
19951;SDS011;10137;49.406;19.484;2023-03-24T07:50:05;24.70;;;15.27;;
19951;SDS011;10137;49.406;19.484;2023-03-24T07:52:35;43.17;;;27.90;;
19951;SDS011;10137;49.406;19.484;2023-03-24T07:55:02;36.90;;;21.57;;
19951;SDS011;10137;49.406;19.484;2023-03-24T07:57:31;22.97;;;14.33;;
19951;SDS011;10137;49.406;19.484;2023-03-24T08:00:01;20.73;;;12.00;;
19951;SDS011;10137;49.406;19.484;2023-03-24T08:02:32;17.13;;;11.37;;
19951;SDS011;10137;49.406;19.484;2023-03-24T08:04:59;17.73;;;11.97;;
19951;SDS011;10137;49.406;19.484;2023-03-24T08:07:27;39.00;;;23.20;;
19951;SDS011;10137;49.406;19.484;2023-03-24T08:09:55;18.63;;;10.40;;
19951;SDS011;10137;49.406;19.484;2023-03-24T08:12:22;16.17;;;10.67;;
19951;SDS011;10137;49.406;19.484;2023-03-24T08:14:49;27.07;;;15.90;;
19951;SDS011;10137;49.406;19.484;2023-03-24T08:17:17;27.70;;;17.40;;
19951;SDS011;10137;49.406;19.484;2023-03-24T08:19:47;20.33;;;12.87;;
19951;SDS011;10137;49.406;19.484;2023-03-24T08:22:15;16.30;;;11.40;;
19951;SDS011;10137;49.406;19.484;2023-03-24T08:24:45;16.07;;;9.87;;
19951;SDS011;10137;49.406;19.484;2023-03-24T08:27:13;10.30;;;7.13;;
19951;SDS011;10137;49.406;19.484;2023-03-24T08:29:41;11.13;;;6.10;;
19951;SDS011;10137;49.406;19.484;2023-03-24T08:32:08;10.27;;;5.90;;
19951;SDS011;10137;49.406;19.484;2023-03-24T08:34:35;10.43;;;5.83;;
19951;SDS011;10137;49.406;19.484;2023-03-24T08:37:03;9.90;;;5.70;;
19951;SDS011;10137;49.406;19.484;2023-03-24T08:39:31;11.73;;;4.80;;
19951;SDS011;10137;49.406;19.484;2023-03-24T08:42:00;6.93;;;4.50;;
19951;SDS011;10137;49.406;19.484;2023-03-24T08:44:27;9.53;;;4.17;;
19951;SDS011;10137;49.406;19.484;2023-03-24T08:46:54;7.30;;;4.20;;
19951;SDS011;10137;49.406;19.484;2023-03-24T08:49:21;8.60;;;5.73;;
19951;SDS011;10137;49.406;19.484;2023-03-24T08:51:49;15.53;;;4.90;;
19951;SDS011;10137;49.406;19.484;2023-03-24T08:54:18;9.80;;;4.10;;
19951;SDS011;10137;49.406;19.484;2023-03-24T08:56:49;20.53;;;5.20;;
19951;SDS011;10137;49.406;19.484;2023-03-24T08:59:16;11.43;;;5.33;;
19951;SDS011;10137;49.406;19.484;2023-03-24T09:01:43;11.57;;;4.70;;
19951;SDS011;10137;49.406;19.484;2023-03-24T09:04:10;15.57;;;5.00;;
19951;SDS011;10137;49.406;19.484;2023-03-24T09:06:37;11.20;;;4.80;;
19951;SDS011;10137;49.406;19.484;2023-03-24T09:09:04;12.40;;;4.77;;
19951;SDS011;10137;49.406;19.484;2023-03-24T09:11:34;9.43;;;4.57;;
19951;SDS011;10137;49.406;19.484;2023-03-24T09:14:01;12.63;;;4.73;;
19951;SDS011;10137;49.406;19.484;2023-03-24T09:16:28;13.33;;;4.33;;
19951;SDS011;10137;49.406;19.484;2023-03-24T09:18:57;10.97;;;4.37;;
19951;SDS011;10137;49.406;19.484;2023-03-24T09:21:25;6.63;;;3.87;;
19951;SDS011;10137;49.406;19.484;2023-03-24T09:23:53;10.77;;;4.00;;
19951;SDS011;10137;49.406;19.484;2023-03-24T09:26:22;12.47;;;4.30;;
19951;SDS011;10137;49.406;19.484;2023-03-24T09:28:50;9.93;;;4.10;;
19951;SDS011;10137;49.406;19.484;2023-03-24T09:31:17;10.10;;;4.03;;
19951;SDS011;10137;49.406;19.484;2023-03-24T09:33:45;26.43;;;5.63;;
19951;SDS011;10137;49.406;19.484;2023-03-24T09:36:16;6.73;;;3.43;;
19951;SDS011;10137;49.406;19.484;2023-03-24T09:38:43;9.23;;;3.90;;
19951;SDS011;10137;49.406;19.484;2023-03-24T09:41:15;11.97;;;4.63;;
19951;SDS011;10137;49.406;19.484;2023-03-24T09:43:46;12.43;;;4.10;;
19951;SDS011;10137;49.406;19.484;2023-03-24T09:46:25;7.97;;;3.90;;
19951;SDS011;10137;49.406;19.484;2023-03-24T09:48:58;8.57;;;4.00;;
19951;SDS011;10137;49.406;19.484;2023-03-24T09:51:26;17.33;;;4.80;;
19951;SDS011;10137;49.406;19.484;2023-03-24T09:53:57;5.63;;;3.50;;
19951;SDS011;10137;49.406;19.484;2023-03-24T09:56:31;11.00;;;3.70;;
19951;SDS011;10137;49.406;19.484;2023-03-24T09:59:04;13.70;;;4.20;;
19951;SDS011;10137;49.406;19.484;2023-03-24T10:01:34;9.07;;;4.07;;
19951;SDS011;10137;49.406;19.484;2023-03-24T10:04:02;9.40;;;3.30;;
19951;SDS011;10137;49.406;19.484;2023-03-24T10:06:32;5.50;;;3.30;;
19951;SDS011;10137;49.406;19.484;2023-03-24T10:09:11;4.87;;;3.30;;
19951;SDS011;10137;49.406;19.484;2023-03-24T10:11:50;10.57;;;3.17;;
19951;SDS011;10137;49.406;19.484;2023-03-24T10:14:38;13.07;;;3.00;;
19951;SDS011;10137;49.406;19.484;2023-03-24T10:17:16;5.13;;;2.83;;
19951;SDS011;10137;49.406;19.484;2023-03-24T10:19:52;6.23;;;2.90;;
19951;SDS011;10137;49.406;19.484;2023-03-24T10:22:29;6.03;;;2.33;;
19951;SDS011;10137;49.406;19.484;2023-03-24T10:25:04;2.53;;;2.27;;
19951;SDS011;10137;49.406;19.484;2023-03-24T10:27:43;3.80;;;2.57;;
19951;SDS011;10137;49.406;19.484;2023-03-24T10:30:16;4.17;;;2.30;;
19951;SDS011;10137;49.406;19.484;2023-03-24T10:32:47;7.87;;;2.40;;
19951;SDS011;10137;49.406;19.484;2023-03-24T10:35:17;6.30;;;2.73;;
19951;SDS011;10137;49.406;19.484;2023-03-24T10:37:49;5.00;;;2.40;;
19951;SDS011;10137;49.406;19.484;2023-03-24T10:40:19;3.97;;;2.47;;
19951;SDS011;10137;49.406;19.484;2023-03-24T10:42:48;6.33;;;2.87;;
19951;SDS011;10137;49.406;19.484;2023-03-24T10:45:23;3.83;;;2.63;;
19951;SDS011;10137;49.406;19.484;2023-03-24T10:47:53;7.80;;;2.93;;
19951;SDS011;10137;49.406;19.484;2023-03-24T10:50:28;9.73;;;2.80;;
19951;SDS011;10137;49.406;19.484;2023-03-24T10:52:58;8.07;;;3.27;;
19951;SDS011;10137;49.406;19.484;2023-03-24T10:55:28;7.40;;;2.70;;
19951;SDS011;10137;49.406;19.484;2023-03-24T10:57:58;3.87;;;2.60;;
19951;SDS011;10137;49.406;19.484;2023-03-24T11:00:28;6.70;;;2.70;;
19951;SDS011;10137;49.406;19.484;2023-03-24T11:02:59;7.10;;;2.87;;
19951;SDS011;10137;49.406;19.484;2023-03-24T11:05:31;3.23;;;2.37;;
19951;SDS011;10137;49.406;19.484;2023-03-24T11:10:52;6.53;;;2.93;;
19951;SDS011;10137;49.406;19.484;2023-03-24T11:13:29;9.73;;;3.00;;
19951;SDS011;10137;49.406;19.484;2023-03-24T11:16:11;3.87;;;2.30;;
19951;SDS011;10137;49.406;19.484;2023-03-24T11:18:53;5.53;;;2.93;;
19951;SDS011;10137;49.406;19.484;2023-03-24T11:21:23;4.30;;;3.00;;
19951;SDS011;10137;49.406;19.484;2023-03-24T11:23:52;6.90;;;4.47;;
19951;SDS011;10137;49.406;19.484;2023-03-24T11:26:27;6.50;;;2.70;;
19951;SDS011;10137;49.406;19.484;2023-03-24T11:28:59;4.37;;;2.70;;
19951;SDS011;10137;49.406;19.484;2023-03-24T11:31:30;6.40;;;2.50;;
19951;SDS011;10137;49.406;19.484;2023-03-24T11:34:06;5.77;;;2.70;;
19951;SDS011;10137;49.406;19.484;2023-03-24T11:36:40;2.93;;;2.07;;
19951;SDS011;10137;49.406;19.484;2023-03-24T11:39:16;6.00;;;2.90;;
19951;SDS011;10137;49.406;19.484;2023-03-24T11:41:52;4.93;;;2.17;;
19951;SDS011;10137;49.406;19.484;2023-03-24T11:44:40;3.50;;;2.30;;
19951;SDS011;10137;49.406;19.484;2023-03-24T11:47:17;4.40;;;2.70;;
19951;SDS011;10137;49.406;19.484;2023-03-24T11:49:51;2.87;;;2.47;;
19951;SDS011;10137;49.406;19.484;2023-03-24T11:52:26;13.77;;;3.40;;
19951;SDS011;10137;49.406;19.484;2023-03-24T11:54:57;3.77;;;2.37;;
19951;SDS011;10137;49.406;19.484;2023-03-24T11:57:36;3.87;;;2.37;;
19951;SDS011;10137;49.406;19.484;2023-03-24T12:00:14;3.57;;;2.33;;
19951;SDS011;10137;49.406;19.484;2023-03-24T12:02:54;4.57;;;2.67;;
19951;SDS011;10137;49.406;19.484;2023-03-24T12:05:45;3.43;;;2.53;;
19951;SDS011;10137;49.406;19.484;2023-03-24T12:08:22;4.27;;;2.50;;
19951;SDS011;10137;49.406;19.484;2023-03-24T12:11:06;3.97;;;2.47;;
19951;SDS011;10137;49.406;19.484;2023-03-24T12:13:38;3.20;;;2.57;;
19951;SDS011;10137;49.406;19.484;2023-03-24T12:19:14;5.43;;;2.63;;
19951;SDS011;10137;49.406;19.484;2023-03-24T12:22:06;4.80;;;2.70;;
19951;SDS011;10137;49.406;19.484;2023-03-24T12:24:51;4.73;;;2.30;;
19951;SDS011;10137;49.406;19.484;2023-03-24T12:27:36;4.63;;;2.63;;
19951;SDS011;10137;49.406;19.484;2023-03-24T12:30:15;5.22;;;2.88;;
19951;SDS011;10137;49.406;19.484;2023-03-24T12:32:54;5.30;;;2.80;;
19951;SDS011;10137;49.406;19.484;2023-03-24T12:35:41;5.10;;;2.90;;
19951;SDS011;10137;49.406;19.484;2023-03-24T12:38:29;3.78;;;2.53;;
19951;SDS011;10137;49.406;19.484;2023-03-24T12:44:14;4.40;;;2.30;;
19951;SDS011;10137;49.406;19.484;2023-03-24T12:46:54;5.20;;;2.58;;
19951;SDS011;10137;49.406;19.484;2023-03-24T12:49:45;8.10;;;2.53;;
19951;SDS011;10137;49.406;19.484;2023-03-24T12:52:24;6.53;;;3.03;;
19951;SDS011;10137;49.406;19.484;2023-03-24T12:55:08;5.45;;;2.78;;
19951;SDS011;10137;49.406;19.484;2023-03-24T12:57:40;6.50;;;2.43;;
19951;SDS011;10137;49.406;19.484;2023-03-24T13:00:11;3.72;;;1.77;;
19951;SDS011;10137;49.406;19.484;2023-03-24T13:02:50;3.92;;;2.03;;
19951;SDS011;10137;49.406;19.484;2023-03-24T13:05:21;2.25;;;1.90;;
19951;SDS011;10137;49.406;19.484;2023-03-24T13:07:59;3.63;;;1.67;;
19951;SDS011;10137;49.406;19.484;2023-03-24T13:10:34;3.63;;;1.73;;
19951;SDS011;10137;49.406;19.484;2023-03-24T13:13:07;6.65;;;2.25;;
19951;SDS011;10137;49.406;19.484;2023-03-24T13:15:40;4.60;;;2.13;;
19951;SDS011;10137;49.406;19.484;2023-03-24T13:18:14;3.10;;;1.50;;
19951;SDS011;10137;49.406;19.484;2023-03-24T13:20:53;2.70;;;2.13;;
19951;SDS011;10137;49.406;19.484;2023-03-24T13:23:30;3.25;;;2.00;;
19951;SDS011;10137;49.406;19.484;2023-03-24T13:26:14;3.38;;;2.20;;
19951;SDS011;10137;49.406;19.484;2023-03-24T13:28:50;8.05;;;2.08;;
19951;SDS011;10137;49.406;19.484;2023-03-24T13:31:29;8.45;;;2.30;;
19951;SDS011;10137;49.406;19.484;2023-03-24T13:34:01;3.35;;;1.70;;
19951;SDS011;10137;49.406;19.484;2023-03-24T13:36:41;6.37;;;2.07;;
19951;SDS011;10137;49.406;19.484;2023-03-24T13:39:15;3.45;;;2.05;;
19951;SDS011;10137;49.406;19.484;2023-03-24T13:41:46;7.47;;;2.60;;
19951;SDS011;10137;49.406;19.484;2023-03-24T13:44:18;6.50;;;2.60;;
19951;SDS011;10137;49.406;19.484;2023-03-24T13:47:04;4.13;;;2.50;;
19951;SDS011;10137;49.406;19.484;2023-03-24T13:49:38;4.27;;;2.30;;
19951;SDS011;10137;49.406;19.484;2023-03-24T13:52:19;4.83;;;2.20;;
19951;SDS011;10137;49.406;19.484;2023-03-24T13:54:55;7.30;;;2.77;;
19951;SDS011;10137;49.406;19.484;2023-03-24T13:57:25;4.70;;;2.23;;
19951;SDS011;10137;49.406;19.484;2023-03-24T13:59:58;5.83;;;2.50;;
19951;SDS011;10137;49.406;19.484;2023-03-24T14:02:43;5.97;;;2.33;;
19951;SDS011;10137;49.406;19.484;2023-03-24T14:08:12;4.63;;;2.40;;
19951;SDS011;10137;49.406;19.484;2023-03-24T14:10:46;5.03;;;2.50;;
19951;SDS011;10137;49.406;19.484;2023-03-24T14:13:22;7.13;;;2.90;;
19951;SDS011;10137;49.406;19.484;2023-03-24T14:19:17;6.30;;;2.90;;
19951;SDS011;10137;49.406;19.484;2023-03-24T14:21:56;5.93;;;3.00;;
19951;SDS011;10137;49.406;19.484;2023-03-24T14:24:30;5.70;;;2.67;;
19951;SDS011;10137;49.406;19.484;2023-03-24T14:27:00;3.63;;;2.97;;
19951;SDS011;10137;49.406;19.484;2023-03-24T14:29:48;6.63;;;2.67;;
19951;SDS011;10137;49.406;19.484;2023-03-24T14:32:19;6.23;;;3.10;;
19951;SDS011;10137;49.406;19.484;2023-03-24T14:34:49;4.60;;;2.70;;
19951;SDS011;10137;49.406;19.484;2023-03-24T14:37:20;6.87;;;3.20;;
19951;SDS011;10137;49.406;19.484;2023-03-24T14:39:49;6.80;;;3.77;;
19951;SDS011;10137;49.406;19.484;2023-03-24T14:45:50;5.53;;;2.97;;
19951;SDS011;10137;49.406;19.484;2023-03-24T14:48:24;7.07;;;2.83;;
19951;SDS011;10137;49.406;19.484;2023-03-24T14:50:57;9.57;;;3.43;;
19951;SDS011;10137;49.406;19.484;2023-03-24T14:53:29;12.63;;;4.63;;
19951;SDS011;10137;49.406;19.484;2023-03-24T14:56:05;6.57;;;3.20;;
19951;SDS011;10137;49.406;19.484;2023-03-24T14:58:37;8.00;;;3.43;;
19951;SDS011;10137;49.406;19.484;2023-03-24T15:01:10;8.00;;;3.07;;
19951;SDS011;10137;49.406;19.484;2023-03-24T15:03:40;6.40;;;3.17;;
19951;SDS011;10137;49.406;19.484;2023-03-24T15:06:15;4.70;;;3.13;;
19951;SDS011;10137;49.406;19.484;2023-03-24T15:08:48;8.10;;;3.40;;
19951;SDS011;10137;49.406;19.484;2023-03-24T15:11:17;4.87;;;3.33;;
19951;SDS011;10137;49.406;19.484;2023-03-24T15:13:48;7.33;;;3.57;;
19951;SDS011;10137;49.406;19.484;2023-03-24T15:16:21;5.87;;;4.00;;
19951;SDS011;10137;49.406;19.484;2023-03-24T15:18:51;6.53;;;4.27;;
19951;SDS011;10137;49.406;19.484;2023-03-24T15:21:23;7.70;;;4.20;;
19951;SDS011;10137;49.406;19.484;2023-03-24T15:23:54;6.90;;;3.93;;
19951;SDS011;10137;49.406;19.484;2023-03-24T15:26:24;8.33;;;4.43;;
19951;SDS011;10137;49.406;19.484;2023-03-24T15:29:00;7.63;;;4.10;;
19951;SDS011;10137;49.406;19.484;2023-03-24T15:31:36;7.87;;;4.77;;
19951;SDS011;10137;49.406;19.484;2023-03-24T15:34:05;11.67;;;5.20;;